sensor_id;sensor_type;location;lat;lon;timestamp;P1;durP1;ratioP1;P2;durP2;ratioP2
815;SDS011;25928;51.062;13.752;2022-09-02T00:00:34;3.33;;;2.90;;
815;SDS011;25928;51.062;13.752;2022-09-02T00:02:59;3.73;;;2.87;;
815;SDS011;25928;51.062;13.752;2022-09-02T00:05:25;3.40;;;3.10;;
815;SDS011;25928;51.062;13.752;2022-09-02T00:07:51;3.23;;;2.90;;
815;SDS011;25928;51.062;13.752;2022-09-02T00:10:16;3.40;;;3.10;;
815;SDS011;25928;51.062;13.752;2022-09-02T00:12:42;5.10;;;3.20;;
815;SDS011;25928;51.062;13.752;2022-09-02T00:15:07;3.30;;;3.00;;
815;SDS011;25928;51.062;13.752;2022-09-02T00:17:33;4.50;;;3.50;;
815;SDS011;25928;51.062;13.752;2022-09-02T00:19:59;3.93;;;3.53;;
815;SDS011;25928;51.062;13.752;2022-09-02T00:22:24;6.00;;;4.20;;
815;SDS011;25928;51.062;13.752;2022-09-02T00:24:50;4.50;;;3.23;;
815;SDS011;25928;51.062;13.752;2022-09-02T00:27:16;3.47;;;3.17;;
815;SDS011;25928;51.062;13.752;2022-09-02T00:29:41;5.03;;;3.00;;
815;SDS011;25928;51.062;13.752;2022-09-02T00:32:07;3.37;;;3.07;;
815;SDS011;25928;51.062;13.752;2022-09-02T00:34:32;4.90;;;3.00;;
815;SDS011;25928;51.062;13.752;2022-09-02T00:36:58;4.10;;;3.70;;
815;SDS011;25928;51.062;13.752;2022-09-02T00:39:23;3.53;;;3.23;;
815;SDS011;25928;51.062;13.752;2022-09-02T00:41:50;3.00;;;2.80;;
815;SDS011;25928;51.062;13.752;2022-09-02T00:44:17;5.13;;;3.20;;
815;SDS011;25928;51.062;13.752;2022-09-02T00:46:44;3.43;;;3.13;;
815;SDS011;25928;51.062;13.752;2022-09-02T00:51:43;3.90;;;3.60;;
815;SDS011;25928;51.062;13.752;2022-09-02T00:54:13;3.53;;;3.23;;
815;SDS011;25928;51.062;13.752;2022-09-02T00:56:41;3.40;;;2.80;;
815;SDS011;25928;51.062;13.752;2022-09-02T00:59:09;3.90;;;3.60;;
815;SDS011;25928;51.062;13.752;2022-09-02T01:01:39;6.73;;;3.67;;
815;SDS011;25928;51.062;13.752;2022-09-02T01:04:05;4.03;;;3.30;;
815;SDS011;25928;51.062;13.752;2022-09-02T01:06:31;4.50;;;3.70;;
815;SDS011;25928;51.062;13.752;2022-09-02T01:09:00;4.87;;;3.83;;
815;SDS011;25928;51.062;13.752;2022-09-02T01:11:43;4.43;;;3.33;;
815;SDS011;25928;51.062;13.752;2022-09-02T01:14:12;3.23;;;2.60;;
815;SDS011;25928;51.062;13.752;2022-09-02T01:16:40;3.10;;;2.70;;
815;SDS011;25928;51.062;13.752;2022-09-02T01:19:10;3.20;;;2.90;;
815;SDS011;25928;51.062;13.752;2022-09-02T01:22:14;5.23;;;2.97;;
815;SDS011;25928;51.062;13.752;2022-09-02T01:24:48;2.97;;;2.77;;
815;SDS011;25928;51.062;13.752;2022-09-02T01:27:15;3.00;;;2.53;;
815;SDS011;25928;51.062;13.752;2022-09-02T01:29:44;3.40;;;3.10;;
815;SDS011;25928;51.062;13.752;2022-09-02T01:32:10;3.30;;;3.00;;
815;SDS011;25928;51.062;13.752;2022-09-02T01:34:36;3.60;;;3.10;;
815;SDS011;25928;51.062;13.752;2022-09-02T01:37:02;3.57;;;3.23;;
815;SDS011;25928;51.062;13.752;2022-09-02T01:39:28;3.10;;;2.90;;
815;SDS011;25928;51.062;13.752;2022-09-02T01:41:53;2.70;;;2.50;;
815;SDS011;25928;51.062;13.752;2022-09-02T01:44:19;3.33;;;2.70;;
815;SDS011;25928;51.062;13.752;2022-09-02T01:46:46;3.70;;;3.30;;
815;SDS011;25928;51.062;13.752;2022-09-02T01:49:12;4.27;;;3.03;;
815;SDS011;25928;51.062;13.752;2022-09-02T01:51:37;2.90;;;2.70;;
815;SDS011;25928;51.062;13.752;2022-09-02T01:54:03;5.80;;;2.77;;
815;SDS011;25928;51.062;13.752;2022-09-02T01:56:29;2.73;;;2.53;;
815;SDS011;25928;51.062;13.752;2022-09-02T01:58:54;3.73;;;3.20;;
815;SDS011;25928;51.062;13.752;2022-09-02T02:01:20;3.07;;;2.77;;
815;SDS011;25928;51.062;13.752;2022-09-02T02:03:45;4.23;;;3.03;;
815;SDS011;25928;51.062;13.752;2022-09-02T02:06:12;3.33;;;3.00;;
815;SDS011;25928;51.062;13.752;2022-09-02T02:08:40;4.03;;;2.90;;
815;SDS011;25928;51.062;13.752;2022-09-02T02:11:06;5.33;;;3.10;;
815;SDS011;25928;51.062;13.752;2022-09-02T02:13:32;2.80;;;2.60;;
815;SDS011;25928;51.062;13.752;2022-09-02T02:15:57;3.07;;;2.77;;
815;SDS011;25928;51.062;13.752;2022-09-02T02:18:23;6.10;;;2.93;;
815;SDS011;25928;51.062;13.752;2022-09-02T02:20:49;4.90;;;2.97;;
815;SDS011;25928;51.062;13.752;2022-09-02T02:23:14;3.80;;;3.50;;
815;SDS011;25928;51.062;13.752;2022-09-02T02:25:40;3.60;;;3.27;;
815;SDS011;25928;51.062;13.752;2022-09-02T02:28:05;5.50;;;3.97;;
815;SDS011;25928;51.062;13.752;2022-09-02T02:30:32;4.67;;;3.93;;
815;SDS011;25928;51.062;13.752;2022-09-02T02:32:57;6.73;;;3.87;;
815;SDS011;25928;51.062;13.752;2022-09-02T02:35:23;3.90;;;3.50;;
815;SDS011;25928;51.062;13.752;2022-09-02T02:37:49;4.70;;;3.20;;
815;SDS011;25928;51.062;13.752;2022-09-02T02:40:17;4.43;;;3.67;;
815;SDS011;25928;51.062;13.752;2022-09-02T02:42:48;4.27;;;3.60;;
815;SDS011;25928;51.062;13.752;2022-09-02T02:45:17;3.87;;;3.57;;
815;SDS011;25928;51.062;13.752;2022-09-02T02:47:43;4.10;;;3.70;;
815;SDS011;25928;51.062;13.752;2022-09-02T02:50:11;3.67;;;3.37;;
815;SDS011;25928;51.062;13.752;2022-09-02T02:52:40;3.70;;;3.37;;
815;SDS011;25928;51.062;13.752;2022-09-02T02:55:07;4.37;;;2.97;;
815;SDS011;25928;51.062;13.752;2022-09-02T02:57:34;4.20;;;3.80;;
815;SDS011;25928;51.062;13.752;2022-09-02T03:00:07;3.63;;;3.33;;
815;SDS011;25928;51.062;13.752;2022-09-02T03:02:33;6.20;;;3.23;;
815;SDS011;25928;51.062;13.752;2022-09-02T03:04:59;3.63;;;3.40;;
815;SDS011;25928;51.062;13.752;2022-09-02T03:07:25;3.53;;;3.33;;
815;SDS011;25928;51.062;13.752;2022-09-02T03:09:51;3.20;;;2.90;;
815;SDS011;25928;51.062;13.752;2022-09-02T03:12:17;3.73;;;3.20;;
815;SDS011;25928;51.062;13.752;2022-09-02T03:14:43;6.93;;;3.00;;
815;SDS011;25928;51.062;13.752;2022-09-02T03:17:08;3.43;;;3.13;;
815;SDS011;25928;51.062;13.752;2022-09-02T03:19:34;3.50;;;3.27;;
815;SDS011;25928;51.062;13.752;2022-09-02T03:22:00;3.10;;;2.90;;
815;SDS011;25928;51.062;13.752;2022-09-02T03:24:25;3.73;;;3.20;;
815;SDS011;25928;51.062;13.752;2022-09-02T03:26:51;7.93;;;3.37;;
815;SDS011;25928;51.062;13.752;2022-09-02T03:29:16;3.07;;;2.87;;
815;SDS011;25928;51.062;13.752;2022-09-02T03:31:42;3.93;;;3.63;;
815;SDS011;25928;51.062;13.752;2022-09-02T03:34:08;3.73;;;3.43;;
815;SDS011;25928;51.062;13.752;2022-09-02T03:36:35;3.67;;;3.37;;
815;SDS011;25928;51.062;13.752;2022-09-02T03:39:03;4.90;;;3.50;;
815;SDS011;25928;51.062;13.752;2022-09-02T03:41:31;7.13;;;3.33;;
815;SDS011;25928;51.062;13.752;2022-09-02T03:43:56;3.70;;;2.80;;
815;SDS011;25928;51.062;13.752;2022-09-02T03:46:22;3.53;;;3.23;;
815;SDS011;25928;51.062;13.752;2022-09-02T03:48:48;5.47;;;3.23;;
815;SDS011;25928;51.062;13.752;2022-09-02T03:51:16;3.90;;;3.60;;
815;SDS011;25928;51.062;13.752;2022-09-02T03:53:43;3.27;;;2.97;;
815;SDS011;25928;51.062;13.752;2022-09-02T03:56:09;3.50;;;3.20;;
815;SDS011;25928;51.062;13.752;2022-09-02T03:58:36;3.60;;;3.30;;
815;SDS011;25928;51.062;13.752;2022-09-02T04:01:03;3.23;;;3.03;;
815;SDS011;25928;51.062;13.752;2022-09-02T04:03:32;4.13;;;3.73;;
815;SDS011;25928;51.062;13.752;2022-09-02T04:05:58;4.30;;;3.23;;
815;SDS011;25928;51.062;13.752;2022-09-02T04:08:24;4.27;;;3.53;;
815;SDS011;25928;51.062;13.752;2022-09-02T04:10:49;4.20;;;3.80;;
815;SDS011;25928;51.062;13.752;2022-09-02T04:13:15;6.10;;;3.93;;
815;SDS011;25928;51.062;13.752;2022-09-02T04:15:42;6.10;;;3.73;;
815;SDS011;25928;51.062;13.752;2022-09-02T04:18:11;4.27;;;3.40;;
815;SDS011;25928;51.062;13.752;2022-09-02T04:20:38;4.07;;;3.27;;
815;SDS011;25928;51.062;13.752;2022-09-02T04:23:05;4.07;;;3.77;;
815;SDS011;25928;51.062;13.752;2022-09-02T04:25:31;8.20;;;4.20;;
815;SDS011;25928;51.062;13.752;2022-09-02T04:27:57;3.97;;;3.47;;
815;SDS011;25928;51.062;13.752;2022-09-02T04:30:23;5.63;;;3.27;;
815;SDS011;25928;51.062;13.752;2022-09-02T04:32:49;4.97;;;3.90;;
815;SDS011;25928;51.062;13.752;2022-09-02T04:35:16;4.73;;;4.07;;
815;SDS011;25928;51.062;13.752;2022-09-02T04:37:42;4.10;;;3.00;;
815;SDS011;25928;51.062;13.752;2022-09-02T04:40:08;3.90;;;3.50;;
815;SDS011;25928;51.062;13.752;2022-09-02T04:42:34;4.40;;;4.00;;
815;SDS011;25928;51.062;13.752;2022-09-02T04:45:00;3.83;;;3.53;;
815;SDS011;25928;51.062;13.752;2022-09-02T04:47:26;3.43;;;3.13;;
815;SDS011;25928;51.062;13.752;2022-09-02T04:49:52;4.00;;;3.70;;
815;SDS011;25928;51.062;13.752;2022-09-02T04:52:18;4.90;;;3.57;;
815;SDS011;25928;51.062;13.752;2022-09-02T04:54:45;10.30;;;4.30;;
815;SDS011;25928;51.062;13.752;2022-09-02T04:57:10;4.23;;;3.90;;
815;SDS011;25928;51.062;13.752;2022-09-02T04:59:36;4.33;;;3.53;;
815;SDS011;25928;51.062;13.752;2022-09-02T05:02:03;5.70;;;3.87;;
815;SDS011;25928;51.062;13.752;2022-09-02T05:04:29;4.27;;;3.93;;
815;SDS011;25928;51.062;13.752;2022-09-02T05:06:55;10.23;;;4.40;;
815;SDS011;25928;51.062;13.752;2022-09-02T05:09:25;4.10;;;3.80;;
815;SDS011;25928;51.062;13.752;2022-09-02T05:11:52;10.87;;;5.30;;
815;SDS011;25928;51.062;13.752;2022-09-02T05:14:21;5.07;;;3.90;;
815;SDS011;25928;51.062;13.752;2022-09-02T05:16:47;4.97;;;3.80;;
815;SDS011;25928;51.062;13.752;2022-09-02T05:19:18;4.10;;;3.70;;
815;SDS011;25928;51.062;13.752;2022-09-02T05:21:47;5.50;;;4.30;;
815;SDS011;25928;51.062;13.752;2022-09-02T05:24:14;5.03;;;4.53;;
815;SDS011;25928;51.062;13.752;2022-09-02T05:26:40;3.70;;;3.40;;
815;SDS011;25928;51.062;13.752;2022-09-02T05:29:06;4.30;;;3.63;;
815;SDS011;25928;51.062;13.752;2022-09-02T05:31:32;5.23;;;4.70;;
815;SDS011;25928;51.062;13.752;2022-09-02T05:33:58;6.50;;;4.17;;
815;SDS011;25928;51.062;13.752;2022-09-02T05:36:24;5.50;;;4.50;;
815;SDS011;25928;51.062;13.752;2022-09-02T05:38:50;6.33;;;3.90;;
815;SDS011;25928;51.062;13.752;2022-09-02T05:41:20;6.03;;;4.23;;
815;SDS011;25928;51.062;13.752;2022-09-02T05:43:48;6.50;;;4.13;;
815;SDS011;25928;51.062;13.752;2022-09-02T05:46:24;5.30;;;4.20;;
815;SDS011;25928;51.062;13.752;2022-09-02T05:48:51;6.43;;;4.97;;
815;SDS011;25928;51.062;13.752;2022-09-02T05:54:07;4.60;;;3.97;;
815;SDS011;25928;51.062;13.752;2022-09-02T05:56:35;7.53;;;4.40;;
815;SDS011;25928;51.062;13.752;2022-09-02T05:59:02;4.00;;;3.70;;
815;SDS011;25928;51.062;13.752;2022-09-02T06:01:27;12.03;;;5.30;;
815;SDS011;25928;51.062;13.752;2022-09-02T06:03:53;5.63;;;3.90;;
815;SDS011;25928;51.062;13.752;2022-09-02T06:06:21;4.57;;;4.17;;
815;SDS011;25928;51.062;13.752;2022-09-02T06:08:47;6.00;;;4.37;;
815;SDS011;25928;51.062;13.752;2022-09-02T06:11:13;6.40;;;4.30;;
815;SDS011;25928;51.062;13.752;2022-09-02T06:13:41;4.30;;;3.90;;
815;SDS011;25928;51.062;13.752;2022-09-02T06:18:32;3.93;;;3.60;;
815;SDS011;25928;51.062;13.752;2022-09-02T06:20:58;5.27;;;3.90;;
815;SDS011;25928;51.062;13.752;2022-09-02T06:23:24;4.17;;;3.70;;
815;SDS011;25928;51.062;13.752;2022-09-02T06:25:49;4.70;;;4.07;;
815;SDS011;25928;51.062;13.752;2022-09-02T06:28:15;9.83;;;4.13;;
815;SDS011;25928;51.062;13.752;2022-09-02T06:30:42;6.70;;;4.10;;
815;SDS011;25928;51.062;13.752;2022-09-02T06:33:09;4.70;;;4.30;;
815;SDS011;25928;51.062;13.752;2022-09-02T06:35:37;4.47;;;4.07;;
815;SDS011;25928;51.062;13.752;2022-09-02T06:38:05;4.87;;;3.97;;
815;SDS011;25928;51.062;13.752;2022-09-02T06:40:31;6.57;;;4.17;;
815;SDS011;25928;51.062;13.752;2022-09-02T06:42:57;5.90;;;3.80;;
815;SDS011;25928;51.062;13.752;2022-09-02T06:45:22;4.80;;;4.37;;
815;SDS011;25928;51.062;13.752;2022-09-02T06:47:48;4.33;;;3.70;;
815;SDS011;25928;51.062;13.752;2022-09-02T06:50:15;5.80;;;4.20;;
815;SDS011;25928;51.062;13.752;2022-09-02T06:52:41;4.37;;;3.67;;
815;SDS011;25928;51.062;13.752;2022-09-02T06:55:07;4.53;;;3.70;;
815;SDS011;25928;51.062;13.752;2022-09-02T06:57:37;4.83;;;3.60;;
815;SDS011;25928;51.062;13.752;2022-09-02T07:00:07;4.10;;;3.70;;
815;SDS011;25928;51.062;13.752;2022-09-02T07:02:34;7.60;;;3.93;;
815;SDS011;25928;51.062;13.752;2022-09-02T07:05:01;3.60;;;3.23;;
815;SDS011;25928;51.062;13.752;2022-09-02T07:07:39;5.40;;;3.33;;
815;SDS011;25928;51.062;13.752;2022-09-02T07:10:08;4.60;;;3.77;;
815;SDS011;25928;51.062;13.752;2022-09-02T07:12:36;5.43;;;3.20;;
815;SDS011;25928;51.062;13.752;2022-09-02T07:15:04;4.20;;;2.80;;
815;SDS011;25928;51.062;13.752;2022-09-02T07:17:30;3.87;;;3.57;;
815;SDS011;25928;51.062;13.752;2022-09-02T07:19:56;3.90;;;3.40;;
815;SDS011;25928;51.062;13.752;2022-09-02T07:22:24;3.07;;;2.77;;
815;SDS011;25928;51.062;13.752;2022-09-02T07:24:51;3.53;;;2.57;;
815;SDS011;25928;51.062;13.752;2022-09-02T07:27:17;4.83;;;3.10;;
815;SDS011;25928;51.062;13.752;2022-09-02T07:29:44;3.87;;;2.60;;
815;SDS011;25928;51.062;13.752;2022-09-02T07:32:12;4.13;;;2.97;;
815;SDS011;25928;51.062;13.752;2022-09-02T07:34:38;3.27;;;2.60;;
815;SDS011;25928;51.062;13.752;2022-09-02T07:37:04;2.43;;;2.23;;
815;SDS011;25928;51.062;13.752;2022-09-02T07:39:30;2.30;;;2.10;;
815;SDS011;25928;51.062;13.752;2022-09-02T07:41:56;3.83;;;2.60;;
815;SDS011;25928;51.062;13.752;2022-09-02T07:44:22;3.77;;;2.20;;
815;SDS011;25928;51.062;13.752;2022-09-02T07:46:47;4.20;;;2.50;;
815;SDS011;25928;51.062;13.752;2022-09-02T07:49:13;2.47;;;2.27;;
815;SDS011;25928;51.062;13.752;2022-09-02T07:51:40;3.03;;;2.47;;
815;SDS011;25928;51.062;13.752;2022-09-02T07:54:09;3.73;;;2.03;;
815;SDS011;25928;51.062;13.752;2022-09-02T07:56:35;3.90;;;1.60;;
815;SDS011;25928;51.062;13.752;2022-09-02T07:59:01;3.13;;;2.13;;
815;SDS011;25928;51.062;13.752;2022-09-02T08:01:27;3.93;;;2.43;;
815;SDS011;25928;51.062;13.752;2022-09-02T08:03:52;2.20;;;1.80;;
815;SDS011;25928;51.062;13.752;2022-09-02T08:06:20;3.47;;;2.30;;
815;SDS011;25928;51.062;13.752;2022-09-02T08:08:48;5.57;;;2.20;;
815;SDS011;25928;51.062;13.752;2022-09-02T08:11:14;2.33;;;1.57;;
815;SDS011;25928;51.062;13.752;2022-09-02T08:13:40;2.30;;;1.70;;
815;SDS011;25928;51.062;13.752;2022-09-02T08:16:06;2.73;;;1.90;;
815;SDS011;25928;51.062;13.752;2022-09-02T08:18:32;4.50;;;1.80;;
815;SDS011;25928;51.062;13.752;2022-09-02T08:20:58;1.90;;;1.63;;
815;SDS011;25928;51.062;13.752;2022-09-02T08:23:23;2.90;;;1.30;;
815;SDS011;25928;51.062;13.752;2022-09-02T08:25:50;2.37;;;1.50;;
815;SDS011;25928;51.062;13.752;2022-09-02T08:28:15;1.80;;;1.50;;
815;SDS011;25928;51.062;13.752;2022-09-02T08:30:41;1.53;;;1.20;;
815;SDS011;25928;51.062;13.752;2022-09-02T08:33:06;3.60;;;1.23;;
815;SDS011;25928;51.062;13.752;2022-09-02T08:35:32;1.57;;;1.30;;
815;SDS011;25928;51.062;13.752;2022-09-02T08:37:58;4.40;;;1.30;;
815;SDS011;25928;51.062;13.752;2022-09-02T08:40:26;4.00;;;1.27;;
815;SDS011;25928;51.062;13.752;2022-09-02T08:42:59;2.23;;;1.40;;
815;SDS011;25928;51.062;13.752;2022-09-02T08:45:32;1.90;;;0.93;;
815;SDS011;25928;51.062;13.752;2022-09-02T08:48:14;1.70;;;0.87;;
815;SDS011;25928;51.062;13.752;2022-09-02T08:50:41;1.40;;;1.00;;
815;SDS011;25928;51.062;13.752;2022-09-02T08:53:13;3.20;;;1.00;;
815;SDS011;25928;51.062;13.752;2022-09-02T08:56:07;5.13;;;1.30;;
815;SDS011;25928;51.062;13.752;2022-09-02T08:58:40;2.00;;;1.20;;
815;SDS011;25928;51.062;13.752;2022-09-02T09:06:45;1.53;;;0.73;;
815;SDS011;25928;51.062;13.752;2022-09-02T09:17:54;1.90;;;0.80;;
815;SDS011;25928;51.062;13.752;2022-09-02T09:26:07;1.73;;;0.87;;
815;SDS011;25928;51.062;13.752;2022-09-02T09:28:44;1.07;;;0.87;;
815;SDS011;25928;51.062;13.752;2022-09-02T09:31:21;1.80;;;1.20;;
815;SDS011;25928;51.062;13.752;2022-09-02T09:33:57;3.23;;;0.63;;
815;SDS011;25928;51.062;13.752;2022-09-02T09:41:49;1.70;;;0.83;;
815;SDS011;25928;51.062;13.752;2022-09-02T09:47:15;1.47;;;1.10;;
815;SDS011;25928;51.062;13.752;2022-09-02T09:49:44;1.30;;;0.90;;
815;SDS011;25928;51.062;13.752;2022-09-02T09:52:29;1.43;;;0.87;;
815;SDS011;25928;51.062;13.752;2022-09-02T09:55:12;0.90;;;0.80;;
815;SDS011;25928;51.062;13.752;2022-09-02T09:57:43;2.40;;;1.07;;
815;SDS011;25928;51.062;13.752;2022-09-02T10:00:17;1.00;;;0.80;;
815;SDS011;25928;51.062;13.752;2022-09-02T10:02:47;1.10;;;0.70;;
815;SDS011;25928;51.062;13.752;2022-09-02T10:05:36;1.63;;;0.90;;
815;SDS011;25928;51.062;13.752;2022-09-02T10:08:21;1.40;;;0.67;;
815;SDS011;25928;51.062;13.752;2022-09-02T10:11:03;1.13;;;0.80;;
815;SDS011;25928;51.062;13.752;2022-09-02T10:13:52;0.90;;;0.70;;
815;SDS011;25928;51.062;13.752;2022-09-02T10:18:57;1.40;;;1.00;;
815;SDS011;25928;51.062;13.752;2022-09-02T10:22:01;3.17;;;1.03;;
815;SDS011;25928;51.062;13.752;2022-09-02T10:25:16;2.77;;;1.07;;
815;SDS011;25928;51.062;13.752;2022-09-02T10:27:15;1.20;;;1.00;;
815;SDS011;25928;51.062;13.752;2022-09-02T10:30:06;1.57;;;0.80;;
815;SDS011;25928;51.062;13.752;2022-09-02T10:35:35;1.83;;;1.00;;
815;SDS011;25928;51.062;13.752;2022-09-02T10:40:44;1.20;;;0.80;;
815;SDS011;25928;51.062;13.752;2022-09-02T10:43:25;1.43;;;0.80;;
815;SDS011;25928;51.062;13.752;2022-09-02T10:46:08;3.13;;;1.20;;
815;SDS011;25928;51.062;13.752;2022-09-02T10:48:44;1.77;;;0.80;;
815;SDS011;25928;51.062;13.752;2022-09-02T10:59:39;1.37;;;0.77;;
815;SDS011;25928;51.062;13.752;2022-09-02T11:02:11;2.33;;;1.00;;
815;SDS011;25928;51.062;13.752;2022-09-02T11:04:50;0.90;;;0.80;;
815;SDS011;25928;51.062;13.752;2022-09-02T11:07:26;3.17;;;0.80;;
815;SDS011;25928;51.062;13.752;2022-09-02T11:10:07;1.40;;;1.00;;
815;SDS011;25928;51.062;13.752;2022-09-02T11:12:59;1.30;;;0.87;;
815;SDS011;25928;51.062;13.752;2022-09-02T11:18:31;1.00;;;0.73;;
815;SDS011;25928;51.062;13.752;2022-09-02T11:24:21;3.70;;;0.90;;
815;SDS011;25928;51.062;13.752;2022-09-02T11:26:55;3.07;;;0.80;;
815;SDS011;25928;51.062;13.752;2022-09-02T11:32:14;2.00;;;0.77;;
815;SDS011;25928;51.062;13.752;2022-09-02T11:34:48;4.00;;;0.80;;
815;SDS011;25928;51.062;13.752;2022-09-02T11:37:33;0.90;;;0.70;;
815;SDS011;25928;51.062;13.752;2022-09-02T11:41:01;1.00;;;0.70;;
815;SDS011;25928;51.062;13.752;2022-09-02T11:51:43;1.90;;;0.97;;
815;SDS011;25928;51.062;13.752;2022-09-02T11:54:19;2.83;;;0.87;;
815;SDS011;25928;51.062;13.752;2022-09-02T11:56:49;1.57;;;1.00;;
815;SDS011;25928;51.062;13.752;2022-09-02T11:59:22;2.37;;;1.10;;
815;SDS011;25928;51.062;13.752;2022-09-02T12:02:10;2.07;;;0.70;;
815;SDS011;25928;51.062;13.752;2022-09-02T12:04:36;3.00;;;1.50;;
815;SDS011;25928;51.062;13.752;2022-09-02T12:17:36;3.47;;;0.80;;
815;SDS011;25928;51.062;13.752;2022-09-02T12:23:02;2.23;;;1.20;;
815;SDS011;25928;51.062;13.752;2022-09-02T12:36:02;1.10;;;0.70;;
815;SDS011;25928;51.062;13.752;2022-09-02T12:38:53;1.73;;;0.70;;
815;SDS011;25928;51.062;13.752;2022-09-02T12:41:23;1.70;;;1.00;;
815;SDS011;25928;51.062;13.752;2022-09-02T12:46:38;1.00;;;0.90;;
815;SDS011;25928;51.062;13.752;2022-09-02T12:55:20;1.67;;;1.00;;
815;SDS011;25928;51.062;13.752;2022-09-02T12:57:52;4.40;;;0.83;;
815;SDS011;25928;51.062;13.752;2022-09-02T13:00:32;1.87;;;0.80;;
815;SDS011;25928;51.062;13.752;2022-09-02T13:04:02;1.30;;;1.10;;
815;SDS011;25928;51.062;13.752;2022-09-02T13:11:56;1.23;;;0.87;;
815;SDS011;25928;51.062;13.752;2022-09-02T13:20:39;1.10;;;0.63;;
815;SDS011;25928;51.062;13.752;2022-09-02T13:23:27;2.40;;;0.93;;
815;SDS011;25928;51.062;13.752;2022-09-02T13:31:26;1.90;;;0.80;;
815;SDS011;25928;51.062;13.752;2022-09-02T13:36:28;1.63;;;0.90;;
815;SDS011;25928;51.062;13.752;2022-09-02T13:39:18;5.23;;;1.53;;
815;SDS011;25928;51.062;13.752;2022-09-02T13:41:48;0.83;;;0.63;;
815;SDS011;25928;51.062;13.752;2022-09-02T13:44:26;1.50;;;1.00;;
815;SDS011;25928;51.062;13.752;2022-09-02T13:47:02;2.13;;;1.13;;
815;SDS011;25928;51.062;13.752;2022-09-02T13:49:36;1.33;;;1.00;;
815;SDS011;25928;51.062;13.752;2022-09-02T13:52:05;1.87;;;1.13;;
815;SDS011;25928;51.062;13.752;2022-09-02T13:54:37;4.40;;;1.27;;
815;SDS011;25928;51.062;13.752;2022-09-02T13:57:07;2.60;;;0.90;;
815;SDS011;25928;51.062;13.752;2022-09-02T13:59:40;1.47;;;0.70;;
815;SDS011;25928;51.062;13.752;2022-09-02T14:04:55;5.00;;;1.30;;
815;SDS011;25928;51.062;13.752;2022-09-02T14:07:40;3.50;;;1.00;;
815;SDS011;25928;51.062;13.752;2022-09-02T14:10:15;4.53;;;1.20;;
815;SDS011;25928;51.062;13.752;2022-09-02T14:12:43;1.53;;;0.80;;
815;SDS011;25928;51.062;13.752;2022-09-02T14:15:12;1.70;;;0.77;;
815;SDS011;25928;51.062;13.752;2022-09-02T14:17:39;1.00;;;0.90;;
815;SDS011;25928;51.062;13.752;2022-09-02T14:22:39;1.90;;;1.00;;
815;SDS011;25928;51.062;13.752;2022-09-02T14:25:12;2.03;;;1.20;;
815;SDS011;25928;51.062;13.752;2022-09-02T14:27:39;1.70;;;1.00;;
815;SDS011;25928;51.062;13.752;2022-09-02T14:30:12;2.70;;;1.90;;
815;SDS011;25928;51.062;13.752;2022-09-02T14:33:24;2.70;;;1.20;;
815;SDS011;25928;51.062;13.752;2022-09-02T14:36:01;6.37;;;2.23;;
815;SDS011;25928;51.062;13.752;2022-09-02T14:38:37;2.77;;;1.30;;
815;SDS011;25928;51.062;13.752;2022-09-02T14:41:24;3.33;;;1.73;;
815;SDS011;25928;51.062;13.752;2022-09-02T14:43:59;7.93;;;6.50;;
815;SDS011;25928;51.062;13.752;2022-09-02T14:46:37;4.00;;;2.30;;
815;SDS011;25928;51.062;13.752;2022-09-02T14:49:56;4.70;;;3.63;;
815;SDS011;25928;51.062;13.752;2022-09-02T14:52:24;1.87;;;1.37;;
815;SDS011;25928;51.062;13.752;2022-09-02T14:54:52;1.30;;;1.20;;
815;SDS011;25928;51.062;13.752;2022-09-02T14:59:48;2.00;;;1.77;;
815;SDS011;25928;51.062;13.752;2022-09-02T15:04:56;1.37;;;1.27;;
815;SDS011;25928;51.062;13.752;2022-09-02T15:07:23;1.97;;;1.37;;
815;SDS011;25928;51.062;13.752;2022-09-02T15:09:50;2.17;;;1.60;;
815;SDS011;25928;51.062;13.752;2022-09-02T15:12:17;1.50;;;1.00;;
815;SDS011;25928;51.062;13.752;2022-09-02T15:14:44;1.47;;;1.10;;
815;SDS011;25928;51.062;13.752;2022-09-02T15:17:11;1.70;;;1.47;;
815;SDS011;25928;51.062;13.752;2022-09-02T15:19:39;2.90;;;1.40;;
815;SDS011;25928;51.062;13.752;2022-09-02T15:22:04;2.20;;;1.10;;
815;SDS011;25928;51.062;13.752;2022-09-02T15:24:30;2.40;;;1.50;;
815;SDS011;25928;51.062;13.752;2022-09-02T15:26:55;3.33;;;1.30;;
815;SDS011;25928;51.062;13.752;2022-09-02T15:29:21;1.30;;;1.10;;
815;SDS011;25928;51.062;13.752;2022-09-02T15:31:49;1.00;;;0.90;;
815;SDS011;25928;51.062;13.752;2022-09-02T15:34:15;1.60;;;1.17;;
815;SDS011;25928;51.062;13.752;2022-09-02T15:36:42;2.10;;;1.10;;
815;SDS011;25928;51.062;13.752;2022-09-02T15:39:08;1.37;;;0.90;;
815;SDS011;25928;51.062;13.752;2022-09-02T15:41:33;2.77;;;0.90;;
815;SDS011;25928;51.062;13.752;2022-09-02T15:44:00;1.77;;;1.10;;
815;SDS011;25928;51.062;13.752;2022-09-02T15:46:30;1.60;;;1.17;;
815;SDS011;25928;51.062;13.752;2022-09-02T15:48:59;2.40;;;1.60;;
815;SDS011;25928;51.062;13.752;2022-09-02T15:51:26;1.37;;;1.17;;
815;SDS011;25928;51.062;13.752;2022-09-02T15:53:53;5.00;;;1.67;;
815;SDS011;25928;51.062;13.752;2022-09-02T15:56:21;1.47;;;1.20;;
815;SDS011;25928;51.062;13.752;2022-09-02T15:58:54;1.97;;;1.10;;
815;SDS011;25928;51.062;13.752;2022-09-02T16:01:25;2.47;;;1.60;;
815;SDS011;25928;51.062;13.752;2022-09-02T16:03:55;3.50;;;1.37;;
815;SDS011;25928;51.062;13.752;2022-09-02T16:06:24;3.60;;;1.40;;
815;SDS011;25928;51.062;13.752;2022-09-02T16:08:50;6.93;;;2.30;;
815;SDS011;25928;51.062;13.752;2022-09-02T16:11:16;4.13;;;1.80;;
815;SDS011;25928;51.062;13.752;2022-09-02T16:13:42;5.83;;;1.87;;
815;SDS011;25928;51.062;13.752;2022-09-02T16:16:09;2.80;;;2.00;;
815;SDS011;25928;51.062;13.752;2022-09-02T16:18:36;3.43;;;1.10;;
815;SDS011;25928;51.062;13.752;2022-09-02T16:21:10;2.87;;;2.57;;
815;SDS011;25928;51.062;13.752;2022-09-02T16:23:36;5.50;;;3.50;;
815;SDS011;25928;51.062;13.752;2022-09-02T16:26:13;3.20;;;2.70;;
815;SDS011;25928;51.062;13.752;2022-09-02T16:28:45;3.40;;;1.90;;
815;SDS011;25928;51.062;13.752;2022-09-02T16:31:13;9.03;;;3.90;;
815;SDS011;25928;51.062;13.752;2022-09-02T16:33:44;3.83;;;2.43;;
815;SDS011;25928;51.062;13.752;2022-09-02T16:36:19;1.97;;;1.40;;
815;SDS011;25928;51.062;13.752;2022-09-02T16:38:45;2.80;;;1.40;;
815;SDS011;25928;51.062;13.752;2022-09-02T16:41:22;2.57;;;1.80;;
815;SDS011;25928;51.062;13.752;2022-09-02T16:43:57;1.73;;;1.10;;
815;SDS011;25928;51.062;13.752;2022-09-02T16:46:24;1.40;;;1.30;;
815;SDS011;25928;51.062;13.752;2022-09-02T16:48:50;2.20;;;1.67;;
815;SDS011;25928;51.062;13.752;2022-09-02T16:51:16;1.87;;;1.00;;
815;SDS011;25928;51.062;13.752;2022-09-02T16:53:42;1.77;;;1.47;;
815;SDS011;25928;51.062;13.752;2022-09-02T16:56:11;3.90;;;0.90;;
815;SDS011;25928;51.062;13.752;2022-09-02T16:58:38;1.63;;;1.30;;
815;SDS011;25928;51.062;13.752;2022-09-02T17:01:08;1.73;;;1.37;;
815;SDS011;25928;51.062;13.752;2022-09-02T17:03:36;1.87;;;1.30;;
815;SDS011;25928;51.062;13.752;2022-09-02T17:06:03;2.60;;;1.00;;
815;SDS011;25928;51.062;13.752;2022-09-02T17:08:34;2.50;;;0.90;;
815;SDS011;25928;51.062;13.752;2022-09-02T17:16:17;3.30;;;1.30;;
815;SDS011;25928;51.062;13.752;2022-09-02T17:18:44;1.23;;;0.93;;
815;SDS011;25928;51.062;13.752;2022-09-02T17:23:40;3.20;;;1.30;;
815;SDS011;25928;51.062;13.752;2022-09-02T17:28:57;4.03;;;1.17;;
815;SDS011;25928;51.062;13.752;2022-09-02T17:31:27;1.60;;;1.20;;
815;SDS011;25928;51.062;13.752;2022-09-02T17:33:57;1.97;;;1.40;;
815;SDS011;25928;51.062;13.752;2022-09-02T17:36:27;1.27;;;0.97;;
815;SDS011;25928;51.062;13.752;2022-09-02T17:38:54;2.50;;;1.37;;